createdAt,value
2022-12-08T00:02:44.129Z,5.93
2022-12-08T00:08:04.859Z,4.27
2022-12-08T00:13:06.301Z,3.97
2022-12-08T00:18:07.776Z,4.43
2022-12-08T00:23:09.187Z,4.00
2022-12-08T00:28:10.740Z,4.57
2022-12-08T00:33:12.381Z,3.97
2022-12-08T00:38:13.803Z,4.87
2022-12-08T00:43:15.283Z,6.23
2022-12-08T00:54:57.599Z,5.33
2022-12-08T00:59:59.019Z,6.00
2022-12-08T01:05:00.632Z,4.67
2022-12-08T01:10:02.426Z,5.97
2022-12-08T01:15:04.617Z,6.10
2022-12-08T01:20:07.080Z,6.27
2022-12-08T01:25:08.938Z,6.63
2022-12-08T01:30:13.248Z,6.00
2022-12-08T01:35:14.810Z,5.63
2022-12-08T01:40:16.534Z,5.80
2022-12-08T01:45:24.634Z,6.37
2022-12-08T01:50:28.507Z,6.07
2022-12-08T01:55:36.454Z,6.22
2022-12-08T02:00:37.876Z,6.63
2022-12-08T02:05:40.405Z,7.20
2022-12-08T02:10:43.334Z,7.23
2022-12-08T02:15:56.755Z,7.83
2022-12-08T02:21:12.435Z,8.90
2022-12-08T02:26:16.478Z,9.93
2022-12-08T02:31:51.784Z,9.55
2022-12-08T02:37:04.684Z,10.40
2022-12-08T02:42:20.867Z,10.97
2022-12-08T02:47:24.584Z,10.17
2022-12-08T02:52:25.980Z,8.17
2022-12-08T02:57:33.132Z,6.30
2022-12-08T03:03:05.355Z,5.30
2022-12-08T03:08:06.793Z,4.63
2022-12-08T03:13:18.169Z,5.13
2022-12-08T03:18:27.318Z,4.77
2022-12-08T03:23:30.417Z,5.40
2022-12-08T03:28:32.097Z,5.70
2022-12-08T03:33:37.528Z,6.37
2022-12-08T03:38:41.304Z,6.77
2022-12-08T03:43:42.831Z,6.67
2022-12-08T03:48:44.535Z,7.40
2022-12-08T03:53:46.352Z,8.17
2022-12-08T03:58:47.756Z,7.30
2022-12-08T04:03:49.575Z,6.83
2022-12-08T04:08:52.232Z,6.90
2022-12-08T04:13:53.703Z,7.40
2022-12-08T04:18:55.502Z,7.10
2022-12-08T04:24:01.112Z,9.07
2022-12-08T04:29:03.016Z,7.93
2022-12-08T04:34:04.410Z,8.57
2022-12-08T04:39:06.002Z,6.80
2022-12-08T04:44:07.403Z,6.90
2022-12-08T04:49:08.882Z,7.23
2022-12-08T04:54:10.350Z,6.60
2022-12-08T04:59:11.844Z,7.37
2022-12-08T05:04:13.335Z,6.57
2022-12-08T05:09:14.870Z,7.33
2022-12-08T05:14:18.179Z,7.37
2022-12-08T05:19:19.667Z,7.50
2022-12-08T05:24:21.098Z,8.47
2022-12-08T05:29:22.681Z,7.83
2022-12-08T05:34:24.201Z,7.63
2022-12-08T05:39:25.903Z,7.77
2022-12-08T05:44:27.360Z,8.53
2022-12-08T05:49:28.829Z,9.00
2022-12-08T05:54:30.407Z,8.03
2022-12-08T05:59:31.814Z,8.47
2022-12-08T06:04:33.270Z,8.00
2022-12-08T06:09:34.790Z,8.10
2022-12-08T06:14:36.240Z,8.13
2022-12-08T06:19:37.700Z,8.90
2022-12-08T06:24:39.243Z,8.10
2022-12-08T06:29:40.740Z,9.43
2022-12-08T06:34:42.188Z,8.67
2022-12-08T06:39:43.710Z,10.03
2022-12-08T06:44:45.313Z,9.57
2022-12-08T06:49:46.772Z,10.73
2022-12-08T06:54:48.182Z,10.03
2022-12-08T06:59:49.807Z,11.23
2022-12-08T07:04:51.478Z,13.47
2022-12-08T07:09:52.880Z,19.00
2022-12-08T07:14:54.691Z,16.40
2022-12-08T07:19:56.192Z,15.13
2022-12-08T07:24:57.638Z,12.33
2022-12-08T07:29:59.105Z,12.73
2022-12-08T07:35:00.755Z,10.43
2022-12-08T07:40:02.605Z,28.77
2022-12-08T07:45:04.799Z,20.93
2022-12-08T07:50:07.252Z,18.20
2022-12-08T07:55:09.328Z,13.13
2022-12-08T08:00:11.421Z,12.97
2022-12-08T08:05:13.272Z,13.30
2022-12-08T08:10:14.795Z,12.33
2022-12-08T08:15:17.432Z,13.20
2022-12-08T08:20:20.772Z,19.07
2022-12-08T08:25:22.730Z,14.77
2022-12-08T08:30:24.620Z,14.03
2022-12-08T08:35:26.079Z,15.43
2022-12-08T08:40:27.514Z,14.50
2022-12-08T08:45:28.988Z,17.53
2022-12-08T08:50:35.866Z,17.30
2022-12-08T08:55:39.599Z,14.87
2022-12-08T09:00:41.136Z,14.13
2022-12-08T09:05:42.684Z,13.70
2022-12-08T09:10:44.223Z,18.87
2022-12-08T09:15:45.751Z,20.23
2022-12-08T09:20:47.446Z,17.10
2022-12-08T09:25:48.859Z,15.37
2022-12-08T09:30:52.136Z,16.40
2022-12-08T09:35:54.794Z,16.23
2022-12-08T09:40:56.425Z,16.17
2022-12-08T09:45:58.656Z,13.33
2022-12-08T09:51:00.089Z,13.67
2022-12-08T09:56:04.075Z,14.43
2022-12-08T10:01:05.566Z,13.73
2022-12-08T10:06:30.629Z,15.53
2022-12-08T10:11:44.543Z,16.13
2022-12-08T10:16:49.812Z,14.65
2022-12-08T10:21:53.008Z,14.07
2022-12-08T10:26:55.797Z,14.17
2022-12-08T10:31:59.491Z,12.23
2022-12-08T10:37:09.679Z,12.57
2022-12-08T10:42:14.110Z,13.37
2022-12-08T10:47:15.668Z,12.60
2022-12-08T10:52:24.147Z,13.70
2022-12-08T10:57:25.741Z,14.03
2022-12-08T11:02:27.404Z,13.63
2022-12-08T11:07:29.374Z,13.00
2022-12-08T11:12:31.345Z,12.90
2022-12-08T11:17:41.276Z,12.53
2022-12-08T11:22:44.816Z,10.37
2022-12-08T11:27:48.872Z,13.60
2022-12-08T11:32:57.249Z,11.43
2022-12-08T11:38:20.514Z,12.77
2022-12-08T11:43:35.136Z,11.43
2022-12-08T11:48:39.334Z,11.10
2022-12-08T11:54:06.927Z,11.27
2022-12-08T11:59:26.274Z,12.03
2022-12-08T12:05:04.032Z,11.80
2022-12-08T12:10:36.482Z,14.27
2022-12-08T12:16:08.086Z,12.10
2022-12-08T12:21:22.751Z,12.57
2022-12-08T12:26:31.096Z,13.47
2022-12-08T12:31:37.094Z,12.10
2022-12-08T12:36:51.229Z,10.90
2022-12-08T12:41:58.795Z,11.00
2022-12-08T12:47:02.501Z,12.03
2022-12-08T12:52:18.675Z,11.17
2022-12-08T12:57:20.060Z,11.77
2022-12-08T13:02:36.669Z,10.30
2022-12-08T13:08:16.259Z,11.70
2022-12-08T13:13:18.898Z,11.17
2022-12-08T13:18:39.803Z,11.83
2022-12-08T13:24:17.676Z,11.37
2022-12-08T13:29:26.516Z,11.70
2022-12-08T13:34:46.258Z,12.23
2022-12-08T13:40:14.312Z,11.70
2022-12-08T13:45:48.713Z,11.77
2022-12-08T13:57:02.404Z,13.20
2022-12-08T14:02:02.148Z,12.87
2022-12-08T14:07:04.812Z,12.80
2022-12-08T14:12:20.852Z,13.10
2022-12-08T14:17:23.523Z,13.60
2022-12-08T14:22:31.977Z,15.07
2022-12-08T14:27:36.039Z,13.87
2022-12-08T14:32:51.356Z,12.93
2022-12-08T14:37:57.040Z,13.63
2022-12-08T14:43:07.798Z,15.00
2022-12-08T14:48:38.458Z,15.63
2022-12-08T14:53:47.399Z,13.43
2022-12-08T14:58:51.339Z,13.37
2022-12-08T15:03:54.643Z,15.63
2022-12-08T15:09:01.464Z,14.07
2022-12-08T15:14:03.151Z,14.33
2022-12-08T15:19:30.175Z,15.20
2022-12-08T15:24:35.539Z,15.60
2022-12-08T15:29:37.019Z,18.20
2022-12-08T15:34:38.490Z,19.90
2022-12-08T15:39:39.976Z,17.53
2022-12-08T15:44:41.709Z,14.50
2022-12-08T15:49:44.351Z,11.73
2022-12-08T15:54:46.077Z,13.17
2022-12-08T15:59:47.812Z,14.63
2022-12-08T16:10:19.476Z,12.70
2022-12-08T16:15:49.976Z,10.97
2022-12-08T16:21:09.282Z,11.80
2022-12-08T16:26:49.091Z,11.33
2022-12-08T16:31:27.031Z,11.47
2022-12-08T16:36:28.506Z,10.53
2022-12-08T16:41:48.536Z,11.37
2022-12-08T16:46:50.056Z,13.83
2022-12-08T16:51:51.555Z,13.80
2022-12-08T16:56:53.020Z,16.20
2022-12-08T17:01:54.631Z,11.30
2022-12-08T17:06:56.307Z,12.77
2022-12-08T17:12:03.458Z,17.57
2022-12-08T17:17:06.209Z,16.17
2022-12-08T17:22:07.750Z,16.37
2022-12-08T17:27:09.209Z,17.10
2022-12-08T17:32:10.698Z,17.90
2022-12-08T17:37:12.370Z,17.23
2022-12-08T17:42:13.823Z,17.80
2022-12-08T17:47:15.359Z,13.43
2022-12-08T17:52:16.812Z,18.40
2022-12-08T17:57:18.396Z,13.20
2022-12-08T18:02:20.639Z,17.00
2022-12-08T18:07:22.197Z,18.67
2022-12-08T18:12:24.131Z,16.03
2022-12-08T18:17:25.703Z,20.57
2022-12-08T18:22:27.303Z,31.53
2022-12-08T18:27:28.767Z,47.97
2022-12-08T18:32:30.218Z,42.20
2022-12-08T18:37:31.675Z,20.43
2022-12-08T18:42:33.237Z,15.70
2022-12-08T18:47:37.055Z,19.40
2022-12-08T18:52:38.612Z,17.53
2022-12-08T18:57:43.093Z,19.70
2022-12-08T19:02:44.811Z,16.80
2022-12-08T19:07:46.531Z,15.53
2022-12-08T19:12:52.544Z,16.77
2022-12-08T19:17:54.036Z,15.90
2022-12-08T19:22:55.518Z,16.57
2022-12-08T19:27:56.969Z,16.17
2022-12-08T19:32:58.623Z,16.23
2022-12-08T19:38:00.143Z,15.73
2022-12-08T19:43:20.107Z,14.10
2022-12-08T19:48:21.593Z,13.30
2022-12-08T19:53:24.493Z,13.97
2022-12-08T19:58:26.059Z,11.70
2022-12-08T20:03:27.518Z,12.57
2022-12-08T20:08:29.066Z,12.00
2022-12-08T20:13:45.148Z,12.33
2022-12-08T20:18:48.502Z,11.97
2022-12-08T20:23:50.095Z,13.10
2022-12-08T20:28:51.806Z,14.20
2022-12-08T20:33:54.317Z,14.47
2022-12-08T20:38:56.143Z,12.77
2022-12-08T20:43:57.696Z,14.23
2022-12-08T20:49:01.237Z,14.50
2022-12-08T20:54:04.518Z,13.97
2022-12-08T20:59:06.135Z,12.97
2022-12-08T21:04:12.188Z,12.87
2022-12-08T21:09:13.962Z,11.93
2022-12-08T21:14:15.666Z,12.80
2022-12-08T21:19:19.179Z,12.67
2022-12-08T21:24:20.741Z,15.00
2022-12-08T21:29:22.851Z,12.97
2022-12-08T21:34:25.791Z,14.53
2022-12-08T21:39:27.616Z,15.13
2022-12-08T21:44:29.047Z,14.93
2022-12-08T21:49:30.580Z,16.70
2022-12-08T21:54:32.250Z,15.80
2022-12-08T21:59:33.766Z,15.63
2022-12-08T22:04:35.346Z,16.03
2022-12-08T22:09:37.243Z,17.03
2022-12-08T22:14:40.403Z,16.53
2022-12-08T22:19:41.998Z,17.80
2022-12-08T22:24:43.406Z,17.73
2022-12-08T22:29:45.241Z,16.40
2022-12-08T22:34:47.052Z,16.53
2022-12-08T22:39:48.463Z,17.20
2022-12-08T22:44:50.058Z,16.77
2022-12-08T22:49:51.462Z,17.23
2022-12-08T22:54:53.056Z,15.87
2022-12-08T22:59:54.532Z,16.97
2022-12-08T23:04:56.920Z,15.67
2022-12-08T23:09:58.534Z,17.80
2022-12-08T23:14:59.962Z,17.00
2022-12-08T23:20:01.801Z,17.00
2022-12-08T23:25:04.626Z,17.10
2022-12-08T23:30:07.478Z,18.20
2022-12-08T23:35:10.012Z,18.53
2022-12-08T23:40:12.200Z,18.77
2022-12-08T23:45:13.868Z,19.27
2022-12-08T23:50:15.812Z,18.50
2022-12-08T23:55:17.491Z,19.40
